Essex, Montana
Current Conditions -  °F | °C
As of 4:55 PM on Tuesday 25 Nov 2014 (Local Time) from KGPI Reporting Station
Haze Haze  
Wind Chill: 33°   Ceiling: 10000
Heat Index: 33°   Visibility: 4mi
Dew Point: 32°   Wind: 0mph
Humidity: 96%   Direction: NA
Pressure: 30.12"   Gusts: NA
Location:  48.28°N, 113.62°W
Report Text: KGPI 252355Z 00000KT 4SM BR FEW004 BKN100 01/00 A3012 RMK AO2 SLP224 T00060000 10022 20000 51016
Loading
Personal Weather Stations






























Interactive Weather Map New forecast layout! Learn more

10-Day Weather Forecast

Advertisements
Track Severe Weather on mobile